sensor_id;sensor_type;location;lat;lon;timestamp;P1;durP1;ratioP1;P2;durP2;ratioP2
735;SDS011;352;48.626;9.238;2023-02-22T00:01:24;10.48;;;6.30;;
735;SDS011;352;48.626;9.238;2023-02-22T00:03:59;8.30;;;6.38;;
735;SDS011;352;48.626;9.238;2023-02-22T00:06:26;7.07;;;6.38;;
735;SDS011;352;48.626;9.238;2023-02-22T00:08:55;8.95;;;7.13;;
735;SDS011;352;48.626;9.238;2023-02-22T00:11:22;6.88;;;6.18;;
735;SDS011;352;48.626;9.238;2023-02-22T00:13:49;7.78;;;5.85;;
735;SDS011;352;48.626;9.238;2023-02-22T00:16:17;7.82;;;5.95;;
735;SDS011;352;48.626;9.238;2023-02-22T00:18:47;7.57;;;5.97;;
735;SDS011;352;48.626;9.238;2023-02-22T00:21:15;9.20;;;6.28;;
735;SDS011;352;48.626;9.238;2023-02-22T00:23:43;7.40;;;5.97;;
735;SDS011;352;48.626;9.238;2023-02-22T00:26:12;7.32;;;5.63;;
735;SDS011;352;48.626;9.238;2023-02-22T00:28:42;8.50;;;5.50;;
735;SDS011;352;48.626;9.238;2023-02-22T00:31:10;6.68;;;6.00;;
735;SDS011;352;48.626;9.238;2023-02-22T00:33:37;7.15;;;5.45;;
735;SDS011;352;48.626;9.238;2023-02-22T00:36:06;7.78;;;5.88;;
735;SDS011;352;48.626;9.238;2023-02-22T00:38:33;6.60;;;4.88;;
735;SDS011;352;48.626;9.238;2023-02-22T00:41:00;8.20;;;6.53;;
735;SDS011;352;48.626;9.238;2023-02-22T00:43:27;7.10;;;5.95;;
735;SDS011;352;48.626;9.238;2023-02-22T00:45:54;10.90;;;5.88;;
735;SDS011;352;48.626;9.238;2023-02-22T00:48:21;6.75;;;5.97;;
735;SDS011;352;48.626;9.238;2023-02-22T00:50:47;8.07;;;6.45;;
735;SDS011;352;48.626;9.238;2023-02-22T00:53:19;8.98;;;5.90;;
735;SDS011;352;48.626;9.238;2023-02-22T00:55:46;8.65;;;5.60;;
735;SDS011;352;48.626;9.238;2023-02-22T00:58:12;6.13;;;5.53;;
735;SDS011;352;48.626;9.238;2023-02-22T01:00:40;6.80;;;5.20;;
735;SDS011;352;48.626;9.238;2023-02-22T01:03:09;6.53;;;5.50;;
735;SDS011;352;48.626;9.238;2023-02-22T01:05:38;8.05;;;5.97;;
735;SDS011;352;48.626;9.238;2023-02-22T01:08:06;6.32;;;5.68;;
735;SDS011;352;48.626;9.238;2023-02-22T01:10:35;5.50;;;4.97;;
735;SDS011;352;48.626;9.238;2023-02-22T01:13:03;7.93;;;5.13;;
735;SDS011;352;48.626;9.238;2023-02-22T01:15:32;6.13;;;5.50;;
735;SDS011;352;48.626;9.238;2023-02-22T01:18:01;7.15;;;5.70;;
735;SDS011;352;48.626;9.238;2023-02-22T01:20:29;8.25;;;5.68;;
735;SDS011;352;48.626;9.238;2023-02-22T01:22:57;6.53;;;5.70;;
735;SDS011;352;48.626;9.238;2023-02-22T01:25:26;6.90;;;5.53;;
735;SDS011;352;48.626;9.238;2023-02-22T01:27:57;6.93;;;5.80;;
735;SDS011;352;48.626;9.238;2023-02-22T01:30:26;8.77;;;5.55;;
735;SDS011;352;48.626;9.238;2023-02-22T01:32:54;6.97;;;5.35;;
735;SDS011;352;48.626;9.238;2023-02-22T01:35:23;8.07;;;5.93;;
735;SDS011;352;48.626;9.238;2023-02-22T01:37:52;10.57;;;5.80;;
735;SDS011;352;48.626;9.238;2023-02-22T01:40:19;7.95;;;5.45;;
735;SDS011;352;48.626;9.238;2023-02-22T01:42:50;7.38;;;5.32;;
735;SDS011;352;48.626;9.238;2023-02-22T01:45:30;5.40;;;4.72;;
735;SDS011;352;48.626;9.238;2023-02-22T01:48:08;8.45;;;6.38;;
735;SDS011;352;48.626;9.238;2023-02-22T01:50:38;7.38;;;5.60;;
735;SDS011;352;48.626;9.238;2023-02-22T01:53:10;9.32;;;6.03;;
735;SDS011;352;48.626;9.238;2023-02-22T01:55:43;6.85;;;5.90;;
735;SDS011;352;48.626;9.238;2023-02-22T01:58:11;6.75;;;6.13;;
735;SDS011;352;48.626;9.238;2023-02-22T02:00:41;8.18;;;6.93;;
735;SDS011;352;48.626;9.238;2023-02-22T02:03:10;6.13;;;5.20;;
735;SDS011;352;48.626;9.238;2023-02-22T02:05:41;9.52;;;5.65;;
735;SDS011;352;48.626;9.238;2023-02-22T02:08:11;7.18;;;5.65;;
735;SDS011;352;48.626;9.238;2023-02-22T02:10:46;6.55;;;5.32;;
735;SDS011;352;48.626;9.238;2023-02-22T02:13:14;4.85;;;4.40;;
735;SDS011;352;48.626;9.238;2023-02-22T02:15:42;6.10;;;5.50;;
735;SDS011;352;48.626;9.238;2023-02-22T02:18:10;5.75;;;5.15;;
735;SDS011;352;48.626;9.238;2023-02-22T02:20:41;11.60;;;5.65;;
735;SDS011;352;48.626;9.238;2023-02-22T02:23:27;8.25;;;5.40;;
735;SDS011;352;48.626;9.238;2023-02-22T02:35:20;6.70;;;5.90;;
735;SDS011;352;48.626;9.238;2023-02-22T02:38:01;7.00;;;6.30;;
735;SDS011;352;48.626;9.238;2023-02-22T02:40:36;9.45;;;5.50;;
735;SDS011;352;48.626;9.238;2023-02-22T02:43:11;8.55;;;6.72;;
735;SDS011;352;48.626;9.238;2023-02-22T02:45:43;10.65;;;6.00;;
735;SDS011;352;48.626;9.238;2023-02-22T02:48:15;7.60;;;5.90;;
735;SDS011;352;48.626;9.238;2023-02-22T02:50:46;6.60;;;6.03;;
735;SDS011;352;48.626;9.238;2023-02-22T02:53:15;8.48;;;6.00;;
735;SDS011;352;48.626;9.238;2023-02-22T02:55:47;6.45;;;5.82;;
735;SDS011;352;48.626;9.238;2023-02-22T02:58:18;8.50;;;6.90;;
735;SDS011;352;48.626;9.238;2023-02-22T03:00:46;7.40;;;6.40;;
735;SDS011;352;48.626;9.238;2023-02-22T03:03:21;11.20;;;6.32;;
735;SDS011;352;48.626;9.238;2023-02-22T03:06:11;9.25;;;7.07;;
735;SDS011;352;48.626;9.238;2023-02-22T03:08:58;7.50;;;6.20;;
735;SDS011;352;48.626;9.238;2023-02-22T03:11:34;7.10;;;5.80;;
735;SDS011;352;48.626;9.238;2023-02-22T03:14:09;6.63;;;5.40;;
735;SDS011;352;48.626;9.238;2023-02-22T03:16:41;7.50;;;5.70;;
735;SDS011;352;48.626;9.238;2023-02-22T03:19:14;8.32;;;5.38;;
735;SDS011;352;48.626;9.238;2023-02-22T03:21:48;7.13;;;5.25;;
735;SDS011;352;48.626;9.238;2023-02-22T03:24:21;6.43;;;5.70;;
735;SDS011;352;48.626;9.238;2023-02-22T03:26:55;6.72;;;5.50;;
735;SDS011;352;48.626;9.238;2023-02-22T03:29:27;5.82;;;5.30;;
735;SDS011;352;48.626;9.238;2023-02-22T03:31:59;7.82;;;5.93;;
735;SDS011;352;48.626;9.238;2023-02-22T03:34:31;6.00;;;4.95;;
735;SDS011;352;48.626;9.238;2023-02-22T03:37:04;5.60;;;5.10;;
735;SDS011;352;48.626;9.238;2023-02-22T03:39:38;9.38;;;5.65;;
735;SDS011;352;48.626;9.238;2023-02-22T03:42:07;6.05;;;5.55;;
735;SDS011;352;48.626;9.238;2023-02-22T03:44:37;6.50;;;5.65;;
735;SDS011;352;48.626;9.238;2023-02-22T03:47:06;11.27;;;5.68;;
735;SDS011;352;48.626;9.238;2023-02-22T03:49:40;6.63;;;5.45;;
735;SDS011;352;48.626;9.238;2023-02-22T03:52:11;5.93;;;5.13;;
735;SDS011;352;48.626;9.238;2023-02-22T03:54:38;5.93;;;5.40;;
735;SDS011;352;48.626;9.238;2023-02-22T03:57:05;6.22;;;5.65;;
735;SDS011;352;48.626;9.238;2023-02-22T03:59:37;5.95;;;5.35;;
735;SDS011;352;48.626;9.238;2023-02-22T04:02:04;6.32;;;4.80;;
735;SDS011;352;48.626;9.238;2023-02-22T04:04:31;7.57;;;5.35;;
735;SDS011;352;48.626;9.238;2023-02-22T04:06:59;6.57;;;5.07;;
735;SDS011;352;48.626;9.238;2023-02-22T04:09:26;6.80;;;5.50;;
735;SDS011;352;48.626;9.238;2023-02-22T04:11:52;6.55;;;5.82;;
735;SDS011;352;48.626;9.238;2023-02-22T04:14:19;6.28;;;5.65;;
735;SDS011;352;48.626;9.238;2023-02-22T04:16:46;7.13;;;5.43;;
735;SDS011;352;48.626;9.238;2023-02-22T04:19:13;5.20;;;4.70;;
735;SDS011;352;48.626;9.238;2023-02-22T04:21:39;5.93;;;5.32;;
735;SDS011;352;48.626;9.238;2023-02-22T04:24:07;10.65;;;5.90;;
735;SDS011;352;48.626;9.238;2023-02-22T04:26:34;6.90;;;5.57;;
735;SDS011;352;48.626;9.238;2023-02-22T04:29:01;8.23;;;5.35;;
735;SDS011;352;48.626;9.238;2023-02-22T04:31:28;7.38;;;5.68;;
735;SDS011;352;48.626;9.238;2023-02-22T04:33:55;6.13;;;5.38;;
735;SDS011;352;48.626;9.238;2023-02-22T04:36:21;6.22;;;5.53;;
735;SDS011;352;48.626;9.238;2023-02-22T04:38:48;6.60;;;5.35;;
735;SDS011;352;48.626;9.238;2023-02-22T04:41:17;7.68;;;5.90;;
735;SDS011;352;48.626;9.238;2023-02-22T04:43:44;6.57;;;5.90;;
735;SDS011;352;48.626;9.238;2023-02-22T04:46:11;7.78;;;6.13;;
735;SDS011;352;48.626;9.238;2023-02-22T04:48:38;7.40;;;6.47;;
735;SDS011;352;48.626;9.238;2023-02-22T04:51:05;6.40;;;5.80;;
735;SDS011;352;48.626;9.238;2023-02-22T04:53:32;7.85;;;5.63;;
735;SDS011;352;48.626;9.238;2023-02-22T04:55:59;7.95;;;6.38;;
735;SDS011;352;48.626;9.238;2023-02-22T04:58:27;7.43;;;6.28;;
735;SDS011;352;48.626;9.238;2023-02-22T05:00:55;7.82;;;6.50;;
735;SDS011;352;48.626;9.238;2023-02-22T05:03:22;7.85;;;6.28;;
735;SDS011;352;48.626;9.238;2023-02-22T05:05:50;7.93;;;6.40;;
735;SDS011;352;48.626;9.238;2023-02-22T05:08:17;7.07;;;6.20;;
735;SDS011;352;48.626;9.238;2023-02-22T05:10:43;7.57;;;6.75;;
735;SDS011;352;48.626;9.238;2023-02-22T05:13:10;6.25;;;5.65;;
735;SDS011;352;48.626;9.238;2023-02-22T05:15:38;7.32;;;6.60;;
735;SDS011;352;48.626;9.238;2023-02-22T05:18:05;10.90;;;6.90;;
735;SDS011;352;48.626;9.238;2023-02-22T05:20:32;8.90;;;6.78;;
735;SDS011;352;48.626;9.238;2023-02-22T05:23:01;6.55;;;6.05;;
735;SDS011;352;48.626;9.238;2023-02-22T05:25:29;9.98;;;7.53;;
735;SDS011;352;48.626;9.238;2023-02-22T05:27:57;8.60;;;6.80;;
735;SDS011;352;48.626;9.238;2023-02-22T05:30:28;7.43;;;6.70;;
735;SDS011;352;48.626;9.238;2023-02-22T05:32:57;7.25;;;6.55;;
735;SDS011;352;48.626;9.238;2023-02-22T05:35:24;10.15;;;7.18;;
735;SDS011;352;48.626;9.238;2023-02-22T05:37:51;8.05;;;6.65;;
735;SDS011;352;48.626;9.238;2023-02-22T05:40:19;8.85;;;6.90;;
735;SDS011;352;48.626;9.238;2023-02-22T05:42:46;7.88;;;7.07;;
735;SDS011;352;48.626;9.238;2023-02-22T05:45:14;9.10;;;7.32;;
735;SDS011;352;48.626;9.238;2023-02-22T05:47:42;7.35;;;6.65;;
735;SDS011;352;48.626;9.238;2023-02-22T05:50:10;11.27;;;7.30;;
735;SDS011;352;48.626;9.238;2023-02-22T05:52:38;9.13;;;6.35;;
735;SDS011;352;48.626;9.238;2023-02-22T05:55:04;7.53;;;6.93;;
735;SDS011;352;48.626;9.238;2023-02-22T05:57:32;7.90;;;7.10;;
735;SDS011;352;48.626;9.238;2023-02-22T05:59:59;8.75;;;6.63;;
735;SDS011;352;48.626;9.238;2023-02-22T06:02:26;8.02;;;6.90;;
735;SDS011;352;48.626;9.238;2023-02-22T06:04:52;10.00;;;8.02;;
735;SDS011;352;48.626;9.238;2023-02-22T06:07:20;9.52;;;7.85;;
735;SDS011;352;48.626;9.238;2023-02-22T06:09:47;8.35;;;7.05;;
735;SDS011;352;48.626;9.238;2023-02-22T06:12:14;11.88;;;7.78;;
735;SDS011;352;48.626;9.238;2023-02-22T06:14:41;7.38;;;6.68;;
735;SDS011;352;48.626;9.238;2023-02-22T06:17:10;8.55;;;7.40;;
735;SDS011;352;48.626;9.238;2023-02-22T06:19:54;8.00;;;7.20;;
735;SDS011;352;48.626;9.238;2023-02-22T06:22:23;12.88;;;7.88;;
735;SDS011;352;48.626;9.238;2023-02-22T06:24:49;10.15;;;7.82;;
735;SDS011;352;48.626;9.238;2023-02-22T06:27:16;12.18;;;8.32;;
735;SDS011;352;48.626;9.238;2023-02-22T06:29:43;11.15;;;8.40;;
735;SDS011;352;48.626;9.238;2023-02-22T06:35:58;8.82;;;7.03;;
735;SDS011;352;48.626;9.238;2023-02-22T06:38:26;11.65;;;8.02;;
735;SDS011;352;48.626;9.238;2023-02-22T06:40:53;10.63;;;7.40;;
735;SDS011;352;48.626;9.238;2023-02-22T06:43:20;10.73;;;8.88;;
735;SDS011;352;48.626;9.238;2023-02-22T06:45:48;12.65;;;11.30;;
735;SDS011;352;48.626;9.238;2023-02-22T06:48:15;11.13;;;10.02;;
735;SDS011;352;48.626;9.238;2023-02-22T06:50:41;8.75;;;7.70;;
735;SDS011;352;48.626;9.238;2023-02-22T06:53:08;8.68;;;7.57;;
735;SDS011;352;48.626;9.238;2023-02-22T06:55:36;7.90;;;7.10;;
735;SDS011;352;48.626;9.238;2023-02-22T06:58:03;8.52;;;7.28;;
735;SDS011;352;48.626;9.238;2023-02-22T07:00:30;8.57;;;7.68;;
735;SDS011;352;48.626;9.238;2023-02-22T07:02:58;9.35;;;8.00;;
735;SDS011;352;48.626;9.238;2023-02-22T07:05:25;11.25;;;9.68;;
735;SDS011;352;48.626;9.238;2023-02-22T07:07:53;16.98;;;13.02;;
735;SDS011;352;48.626;9.238;2023-02-22T07:10:21;14.40;;;12.88;;
735;SDS011;352;48.626;9.238;2023-02-22T07:12:51;16.00;;;12.85;;
735;SDS011;352;48.626;9.238;2023-02-22T07:15:18;16.75;;;13.80;;
735;SDS011;352;48.626;9.238;2023-02-22T07:17:47;19.40;;;15.68;;
735;SDS011;352;48.626;9.238;2023-02-22T07:20:14;18.02;;;15.05;;
735;SDS011;352;48.626;9.238;2023-02-22T07:22:41;19.30;;;14.63;;
735;SDS011;352;48.626;9.238;2023-02-22T07:25:08;18.33;;;15.13;;
735;SDS011;352;48.626;9.238;2023-02-22T07:27:36;16.85;;;13.68;;
735;SDS011;352;48.626;9.238;2023-02-22T07:30:06;15.98;;;13.18;;
735;SDS011;352;48.626;9.238;2023-02-22T07:32:36;15.07;;;13.48;;
735;SDS011;352;48.626;9.238;2023-02-22T07:35:12;21.27;;;13.23;;
735;SDS011;352;48.626;9.238;2023-02-22T07:37:47;17.00;;;13.20;;
735;SDS011;352;48.626;9.238;2023-02-22T07:40:15;17.50;;;13.38;;
735;SDS011;352;48.626;9.238;2023-02-22T07:42:53;13.68;;;12.27;;
735;SDS011;352;48.626;9.238;2023-02-22T07:45:23;14.98;;;13.40;;
735;SDS011;352;48.626;9.238;2023-02-22T07:47:51;18.90;;;12.75;;
735;SDS011;352;48.626;9.238;2023-02-22T07:50:20;15.80;;;12.52;;
735;SDS011;352;48.626;9.238;2023-02-22T07:52:52;15.23;;;11.70;;
735;SDS011;352;48.626;9.238;2023-02-22T07:55:20;12.82;;;10.82;;
735;SDS011;352;48.626;9.238;2023-02-22T07:57:49;16.83;;;11.55;;
735;SDS011;352;48.626;9.238;2023-02-22T08:00:21;12.82;;;11.63;;
735;SDS011;352;48.626;9.238;2023-02-22T08:02:50;13.45;;;11.88;;
735;SDS011;352;48.626;9.238;2023-02-22T08:05:18;13.40;;;12.05;;
735;SDS011;352;48.626;9.238;2023-02-22T08:07:47;13.27;;;10.75;;
735;SDS011;352;48.626;9.238;2023-02-22T08:10:14;12.82;;;10.75;;
735;SDS011;352;48.626;9.238;2023-02-22T08:12:42;12.85;;;11.55;;
735;SDS011;352;48.626;9.238;2023-02-22T08:15:14;15.45;;;10.18;;
735;SDS011;352;48.626;9.238;2023-02-22T08:17:44;11.60;;;10.40;;
735;SDS011;352;48.626;9.238;2023-02-22T08:20:10;11.27;;;10.10;;
735;SDS011;352;48.626;9.238;2023-02-22T08:22:37;12.88;;;10.43;;
735;SDS011;352;48.626;9.238;2023-02-22T08:25:05;15.53;;;10.03;;
735;SDS011;352;48.626;9.238;2023-02-22T08:27:32;11.23;;;10.07;;
735;SDS011;352;48.626;9.238;2023-02-22T08:29:59;11.77;;;9.50;;
735;SDS011;352;48.626;9.238;2023-02-22T08:32:25;9.77;;;8.70;;
735;SDS011;352;48.626;9.238;2023-02-22T08:34:54;10.87;;;9.83;;
735;SDS011;352;48.626;9.238;2023-02-22T08:37:21;14.13;;;11.80;;
735;SDS011;352;48.626;9.238;2023-02-22T08:39:47;11.90;;;10.73;;
735;SDS011;352;48.626;9.238;2023-02-22T08:42:14;11.83;;;10.63;;
735;SDS011;352;48.626;9.238;2023-02-22T08:44:41;10.70;;;9.77;;
735;SDS011;352;48.626;9.238;2023-02-22T08:47:08;12.50;;;11.20;;
735;SDS011;352;48.626;9.238;2023-02-22T08:49:34;13.03;;;11.80;;
735;SDS011;352;48.626;9.238;2023-02-22T08:52:02;12.17;;;10.93;;
735;SDS011;352;48.626;9.238;2023-02-22T08:54:29;12.70;;;9.83;;
735;SDS011;352;48.626;9.238;2023-02-22T08:56:56;12.93;;;10.00;;
735;SDS011;352;48.626;9.238;2023-02-22T08:59:23;11.30;;;8.90;;
735;SDS011;352;48.626;9.238;2023-02-22T09:01:50;9.53;;;8.67;;
735;SDS011;352;48.626;9.238;2023-02-22T09:04:16;11.33;;;8.77;;
735;SDS011;352;48.626;9.238;2023-02-22T09:06:43;11.17;;;10.00;;
735;SDS011;352;48.626;9.238;2023-02-22T09:09:17;10.10;;;9.10;;
735;SDS011;352;48.626;9.238;2023-02-22T09:11:45;8.90;;;8.20;;
735;SDS011;352;48.626;9.238;2023-02-22T09:14:12;10.00;;;9.03;;
735;SDS011;352;48.626;9.238;2023-02-22T09:16:41;17.30;;;9.90;;
735;SDS011;352;48.626;9.238;2023-02-22T09:19:10;9.33;;;8.53;;
735;SDS011;352;48.626;9.238;2023-02-22T09:21:37;11.33;;;9.50;;
735;SDS011;352;48.626;9.238;2023-02-22T09:24:05;10.47;;;9.57;;
735;SDS011;352;48.626;9.238;2023-02-22T09:26:34;9.97;;;9.17;;
735;SDS011;352;48.626;9.238;2023-02-22T09:29:03;9.80;;;8.83;;
735;SDS011;352;48.626;9.238;2023-02-22T09:31:32;10.20;;;9.20;;
735;SDS011;352;48.626;9.238;2023-02-22T09:34:00;9.97;;;8.97;;
735;SDS011;352;48.626;9.238;2023-02-22T09:36:27;9.67;;;8.67;;
735;SDS011;352;48.626;9.238;2023-02-22T09:38:54;11.97;;;9.77;;
735;SDS011;352;48.626;9.238;2023-02-22T09:41:23;9.70;;;8.57;;
735;SDS011;352;48.626;9.238;2023-02-22T09:44:00;9.63;;;8.83;;
735;SDS011;352;48.626;9.238;2023-02-22T09:46:40;10.13;;;8.93;;
735;SDS011;352;48.626;9.238;2023-02-22T09:49:15;9.00;;;8.20;;
735;SDS011;352;48.626;9.238;2023-02-22T09:51:46;9.63;;;8.63;;
735;SDS011;352;48.626;9.238;2023-02-22T09:54:18;9.00;;;8.10;;
735;SDS011;352;48.626;9.238;2023-02-22T09:56:47;8.63;;;7.73;;
735;SDS011;352;48.626;9.238;2023-02-22T09:59:21;9.20;;;8.40;;
735;SDS011;352;48.626;9.238;2023-02-22T10:01:54;9.43;;;8.63;;
735;SDS011;352;48.626;9.238;2023-02-22T10:04:26;8.27;;;7.67;;
735;SDS011;352;48.626;9.238;2023-02-22T10:07:00;9.00;;;8.20;;
735;SDS011;352;48.626;9.238;2023-02-22T10:09:31;9.37;;;7.87;;
735;SDS011;352;48.626;9.238;2023-02-22T10:12:04;9.40;;;8.47;;
735;SDS011;352;48.626;9.238;2023-02-22T10:14:47;9.77;;;8.77;;
735;SDS011;352;48.626;9.238;2023-02-22T10:17:26;10.50;;;9.00;;
735;SDS011;352;48.626;9.238;2023-02-22T10:20:02;9.77;;;8.77;;
735;SDS011;352;48.626;9.238;2023-02-22T10:22:42;8.70;;;7.90;;
735;SDS011;352;48.626;9.238;2023-02-22T10:25:16;9.27;;;8.37;;
735;SDS011;352;48.626;9.238;2023-02-22T10:27:46;9.03;;;8.30;;
735;SDS011;352;48.626;9.238;2023-02-22T10:30:22;9.00;;;8.20;;
735;SDS011;352;48.626;9.238;2023-02-22T10:32:53;10.43;;;9.53;;
735;SDS011;352;48.626;9.238;2023-02-22T10:35:29;9.90;;;8.67;;
735;SDS011;352;48.626;9.238;2023-02-22T10:38:01;10.17;;;9.23;;
735;SDS011;352;48.626;9.238;2023-02-22T10:40:38;11.23;;;9.20;;
735;SDS011;352;48.626;9.238;2023-02-22T10:43:08;10.10;;;9.20;;
735;SDS011;352;48.626;9.238;2023-02-22T10:45:37;10.17;;;9.37;;
735;SDS011;352;48.626;9.238;2023-02-22T10:48:04;10.47;;;9.60;;
735;SDS011;352;48.626;9.238;2023-02-22T10:50:36;10.10;;;9.10;;
735;SDS011;352;48.626;9.238;2023-02-22T10:53:04;9.47;;;8.57;;
735;SDS011;352;48.626;9.238;2023-02-22T10:55:31;9.07;;;8.17;;
735;SDS011;352;48.626;9.238;2023-02-22T10:57:59;14.60;;;9.30;;
735;SDS011;352;48.626;9.238;2023-02-22T11:00:29;11.03;;;9.90;;
735;SDS011;352;48.626;9.238;2023-02-22T11:02:59;9.97;;;8.27;;
735;SDS011;352;48.626;9.238;2023-02-22T11:05:29;10.53;;;9.13;;
735;SDS011;352;48.626;9.238;2023-02-22T11:08:14;11.30;;;8.97;;
735;SDS011;352;48.626;9.238;2023-02-22T11:10:48;10.63;;;9.63;;
735;SDS011;352;48.626;9.238;2023-02-22T11:13:16;10.87;;;9.67;;
735;SDS011;352;48.626;9.238;2023-02-22T11:15:44;10.93;;;9.90;;
735;SDS011;352;48.626;9.238;2023-02-22T11:18:17;13.63;;;10.50;;
735;SDS011;352;48.626;9.238;2023-02-22T11:20:57;16.33;;;10.80;;
735;SDS011;352;48.626;9.238;2023-02-22T11:23:29;10.30;;;9.40;;
735;SDS011;352;48.626;9.238;2023-02-22T11:26:01;14.17;;;9.70;;
735;SDS011;352;48.626;9.238;2023-02-22T11:28:31;14.00;;;10.07;;
735;SDS011;352;48.626;9.238;2023-02-22T11:31:07;10.83;;;9.73;;
735;SDS011;352;48.626;9.238;2023-02-22T11:33:37;14.20;;;10.00;;
735;SDS011;352;48.626;9.238;2023-02-22T11:36:05;10.00;;;9.00;;
735;SDS011;352;48.626;9.238;2023-02-22T11:38:34;10.40;;;9.50;;
735;SDS011;352;48.626;9.238;2023-02-22T11:41:06;11.00;;;9.63;;
735;SDS011;352;48.626;9.238;2023-02-22T11:43:39;11.27;;;9.37;;
735;SDS011;352;48.626;9.238;2023-02-22T11:46:08;11.70;;;9.80;;
735;SDS011;352;48.626;9.238;2023-02-22T11:48:40;11.80;;;10.37;;
735;SDS011;352;48.626;9.238;2023-02-22T11:51:26;11.90;;;9.50;;
735;SDS011;352;48.626;9.238;2023-02-22T11:54:09;10.27;;;9.37;;
735;SDS011;352;48.626;9.238;2023-02-22T11:56:50;10.43;;;9.13;;
735;SDS011;352;48.626;9.238;2023-02-22T11:59:22;9.93;;;8.97;;
735;SDS011;352;48.626;9.238;2023-02-22T12:01:56;11.37;;;10.10;;
735;SDS011;352;48.626;9.238;2023-02-22T12:04:44;10.30;;;9.30;;
735;SDS011;352;48.626;9.238;2023-02-22T12:07:35;10.43;;;9.30;;
735;SDS011;352;48.626;9.238;2023-02-22T12:10:17;10.57;;;9.53;;
735;SDS011;352;48.626;9.238;2023-02-22T12:12:54;10.47;;;9.37;;
735;SDS011;352;48.626;9.238;2023-02-22T12:15:36;11.00;;;10.00;;
735;SDS011;352;48.626;9.238;2023-02-22T12:18:08;9.97;;;9.07;;
735;SDS011;352;48.626;9.238;2023-02-22T12:20:44;10.63;;;9.63;;
735;SDS011;352;48.626;9.238;2023-02-22T12:23:16;11.57;;;9.90;;
735;SDS011;352;48.626;9.238;2023-02-22T12:25:52;11.47;;;9.80;;
735;SDS011;352;48.626;9.238;2023-02-22T12:28:24;10.40;;;9.30;;
735;SDS011;352;48.626;9.238;2023-02-22T12:31:01;10.57;;;8.87;;
735;SDS011;352;48.626;9.238;2023-02-22T12:33:34;10.93;;;9.70;;
735;SDS011;352;48.626;9.238;2023-02-22T12:36:11;10.60;;;9.20;;
735;SDS011;352;48.626;9.238;2023-02-22T12:38:41;14.63;;;9.63;;
735;SDS011;352;48.626;9.238;2023-02-22T12:41:12;10.50;;;9.40;;
735;SDS011;352;48.626;9.238;2023-02-22T12:43:46;9.50;;;8.60;;
735;SDS011;352;48.626;9.238;2023-02-22T12:46:17;10.80;;;8.87;;
735;SDS011;352;48.626;9.238;2023-02-22T12:48:50;10.63;;;9.47;;
735;SDS011;352;48.626;9.238;2023-02-22T12:51:26;10.03;;;9.03;;
735;SDS011;352;48.626;9.238;2023-02-22T12:54:01;10.90;;;9.70;;
735;SDS011;352;48.626;9.238;2023-02-22T12:56:33;10.47;;;8.77;;
735;SDS011;352;48.626;9.238;2023-02-22T12:59:07;11.17;;;9.87;;
735;SDS011;352;48.626;9.238;2023-02-22T13:01:40;11.70;;;9.70;;
735;SDS011;352;48.626;9.238;2023-02-22T13:04:09;9.30;;;8.50;;
735;SDS011;352;48.626;9.238;2023-02-22T13:06:43;11.50;;;10.37;;
735;SDS011;352;48.626;9.238;2023-02-22T13:12:34;11.40;;;10.30;;
735;SDS011;352;48.626;9.238;2023-02-22T13:15:13;14.13;;;10.60;;
735;SDS011;352;48.626;9.238;2023-02-22T13:17:46;13.40;;;10.40;;
735;SDS011;352;48.626;9.238;2023-02-22T13:20:20;11.93;;;9.87;;
735;SDS011;352;48.626;9.238;2023-02-22T13:22:56;11.80;;;10.50;;
735;SDS011;352;48.626;9.238;2023-02-22T13:25:31;11.90;;;10.70;;
735;SDS011;352;48.626;9.238;2023-02-22T13:28:06;12.73;;;11.40;;
735;SDS011;352;48.626;9.238;2023-02-22T13:30:50;11.80;;;10.57;;
735;SDS011;352;48.626;9.238;2023-02-22T13:33:34;11.20;;;10.00;;
735;SDS011;352;48.626;9.238;2023-02-22T13:36:24;10.67;;;9.70;;
735;SDS011;352;48.626;9.238;2023-02-22T13:42:00;12.50;;;10.53;;
735;SDS011;352;48.626;9.238;2023-02-22T13:44:45;14.53;;;11.63;;
735;SDS011;352;48.626;9.238;2023-02-22T13:50:34;13.00;;;11.80;;
735;SDS011;352;48.626;9.238;2023-02-22T13:53:27;12.20;;;11.10;;
735;SDS011;352;48.626;9.238;2023-02-22T13:56:00;13.37;;;12.07;;
735;SDS011;352;48.626;9.238;2023-02-22T13:58:27;12.87;;;11.57;;
735;SDS011;352;48.626;9.238;2023-02-22T14:00:54;15.00;;;12.70;;
735;SDS011;352;48.626;9.238;2023-02-22T14:03:35;16.10;;;12.53;;
735;SDS011;352;48.626;9.238;2023-02-22T14:06:04;14.30;;;12.80;;
735;SDS011;352;48.626;9.238;2023-02-22T14:08:39;13.70;;;12.23;;
735;SDS011;352;48.626;9.238;2023-02-22T14:14:11;13.20;;;11.83;;
735;SDS011;352;48.626;9.238;2023-02-22T14:16:41;14.67;;;12.00;;
735;SDS011;352;48.626;9.238;2023-02-22T14:19:15;12.60;;;11.10;;
735;SDS011;352;48.626;9.238;2023-02-22T14:21:56;16.07;;;11.87;;
735;SDS011;352;48.626;9.238;2023-02-22T14:24:26;13.67;;;12.30;;
735;SDS011;352;48.626;9.238;2023-02-22T14:26:56;17.70;;;12.13;;
735;SDS011;352;48.626;9.238;2023-02-22T14:29:26;16.70;;;11.53;;
735;SDS011;352;48.626;9.238;2023-02-22T14:31:56;11.90;;;10.70;;
735;SDS011;352;48.626;9.238;2023-02-22T14:34:38;11.90;;;10.70;;
735;SDS011;352;48.626;9.238;2023-02-22T14:37:10;15.47;;;12.67;;
735;SDS011;352;48.626;9.238;2023-02-22T14:39:40;14.50;;;11.80;;
735;SDS011;352;48.626;9.238;2023-02-22T14:42:12;16.23;;;13.10;;
735;SDS011;352;48.626;9.238;2023-02-22T14:44:49;13.90;;;11.50;;
735;SDS011;352;48.626;9.238;2023-02-22T14:47:21;13.50;;;12.07;;
735;SDS011;352;48.626;9.238;2023-02-22T14:49:54;14.10;;;11.90;;
735;SDS011;352;48.626;9.238;2023-02-22T14:52:29;13.33;;;11.97;;
735;SDS011;352;48.626;9.238;2023-02-22T14:57:50;12.77;;;11.57;;
735;SDS011;352;48.626;9.238;2023-02-22T15:00:25;12.47;;;11.17;;
735;SDS011;352;48.626;9.238;2023-02-22T15:02:57;14.60;;;11.83;;
735;SDS011;352;48.626;9.238;2023-02-22T15:05:26;13.17;;;11.83;;
735;SDS011;352;48.626;9.238;2023-02-22T15:07:56;14.77;;;11.73;;
735;SDS011;352;48.626;9.238;2023-02-22T15:11:45;13.50;;;11.37;;
735;SDS011;352;48.626;9.238;2023-02-22T15:20:43;13.80;;;11.80;;
735;SDS011;352;48.626;9.238;2023-02-22T15:23:55;12.97;;;11.67;;
735;SDS011;352;48.626;9.238;2023-02-22T15:27:03;14.37;;;11.33;;
735;SDS011;352;48.626;9.238;2023-02-22T15:30:04;12.87;;;11.47;;
735;SDS011;352;48.626;9.238;2023-02-22T15:36:29;18.70;;;11.57;;
735;SDS011;352;48.626;9.238;2023-02-22T15:39:17;12.60;;;11.40;;
735;SDS011;352;48.626;9.238;2023-02-22T15:41:44;12.03;;;10.63;;
735;SDS011;352;48.626;9.238;2023-02-22T15:44:11;11.87;;;10.67;;
735;SDS011;352;48.626;9.238;2023-02-22T15:46:38;15.00;;;11.30;;
735;SDS011;352;48.626;9.238;2023-02-22T15:49:06;12.40;;;11.10;;
735;SDS011;352;48.626;9.238;2023-02-22T15:51:46;14.90;;;12.30;;
735;SDS011;352;48.626;9.238;2023-02-22T15:54:15;12.73;;;11.43;;
735;SDS011;352;48.626;9.238;2023-02-22T15:56:46;13.53;;;11.73;;
735;SDS011;352;48.626;9.238;2023-02-22T15:59:16;13.33;;;10.53;;
735;SDS011;352;48.626;9.238;2023-02-22T16:01:47;16.30;;;11.20;;
735;SDS011;352;48.626;9.238;2023-02-22T16:04:17;16.33;;;11.10;;
735;SDS011;352;48.626;9.238;2023-02-22T16:06:47;12.20;;;10.40;;
735;SDS011;352;48.626;9.238;2023-02-22T16:09:15;12.90;;;11.33;;
735;SDS011;352;48.626;9.238;2023-02-22T16:11:47;15.67;;;11.50;;
735;SDS011;352;48.626;9.238;2023-02-22T16:14:25;15.77;;;11.00;;
735;SDS011;352;48.626;9.238;2023-02-22T16:17:09;15.20;;;11.00;;
735;SDS011;352;48.626;9.238;2023-02-22T16:19:38;13.77;;;11.90;;
735;SDS011;352;48.626;9.238;2023-02-22T16:22:22;12.67;;;11.33;;
735;SDS011;352;48.626;9.238;2023-02-22T16:24:52;13.13;;;11.77;;
735;SDS011;352;48.626;9.238;2023-02-22T16:27:20;16.00;;;11.10;;
735;SDS011;352;48.626;9.238;2023-02-22T16:30:03;13.03;;;11.53;;
735;SDS011;352;48.626;9.238;2023-02-22T16:32:33;15.77;;;11.50;;
735;SDS011;352;48.626;9.238;2023-02-22T16:34:59;14.17;;;11.30;;
735;SDS011;352;48.626;9.238;2023-02-22T16:37:28;13.40;;;11.00;;